sensor_id;sensor_type;location;lat;lon;timestamp;P1;durP1;ratioP1;P2;durP2;ratioP2
24903;SDS011;12960;50.322;11.124;2022-07-30T00:01:00;13.10;;;9.07;;
24903;SDS011;12960;50.322;11.124;2022-07-30T00:02:01;10.70;;;8.85;;
24903;SDS011;12960;50.322;11.124;2022-07-30T00:03:02;12.13;;;9.10;;
24903;SDS011;12960;50.322;11.124;2022-07-30T00:04:04;12.63;;;9.27;;
24903;SDS011;12960;50.322;11.124;2022-07-30T00:05:05;12.45;;;9.18;;
24903;SDS011;12960;50.322;11.124;2022-07-30T00:06:06;11.30;;;10.10;;
24903;SDS011;12960;50.322;11.124;2022-07-30T00:07:07;10.32;;;9.00;;
24903;SDS011;12960;50.322;11.124;2022-07-30T00:08:09;12.02;;;9.05;;
24903;SDS011;12960;50.322;11.124;2022-07-30T00:09:10;12.55;;;10.13;;
24903;SDS011;12960;50.322;11.124;2022-07-30T00:10:11;10.82;;;8.93;;
24903;SDS011;12960;50.322;11.124;2022-07-30T00:11:12;12.63;;;9.52;;
24903;SDS011;12960;50.322;11.124;2022-07-30T00:12:14;13.57;;;9.88;;
24903;SDS011;12960;50.322;11.124;2022-07-30T00:13:16;16.73;;;9.80;;
24903;SDS011;12960;50.322;11.124;2022-07-30T00:14:17;15.82;;;9.75;;
24903;SDS011;12960;50.322;11.124;2022-07-30T00:15:18;11.05;;;9.48;;
24903;SDS011;12960;50.322;11.124;2022-07-30T00:16:19;11.32;;;10.13;;
24903;SDS011;12960;50.322;11.124;2022-07-30T00:17:21;10.57;;;9.48;;
24903;SDS011;12960;50.322;11.124;2022-07-30T00:18:22;12.10;;;10.50;;
24903;SDS011;12960;50.322;11.124;2022-07-30T00:19:23;14.85;;;10.20;;
24903;SDS011;12960;50.322;11.124;2022-07-30T00:20:24;16.52;;;10.57;;
24903;SDS011;12960;50.322;11.124;2022-07-30T00:21:25;14.73;;;10.52;;
24903;SDS011;12960;50.322;11.124;2022-07-30T00:22:26;14.30;;;10.40;;
24903;SDS011;12960;50.322;11.124;2022-07-30T00:23:27;15.43;;;11.25;;
24903;SDS011;12960;50.322;11.124;2022-07-30T00:24:28;13.55;;;11.35;;
24903;SDS011;12960;50.322;11.124;2022-07-30T00:25:29;15.18;;;11.05;;
24903;SDS011;12960;50.322;11.124;2022-07-30T00:26:30;13.15;;;10.88;;
24903;SDS011;12960;50.322;11.124;2022-07-30T00:27:31;13.00;;;11.32;;
24903;SDS011;12960;50.322;11.124;2022-07-30T00:28:34;17.50;;;11.23;;
24903;SDS011;12960;50.322;11.124;2022-07-30T00:29:35;14.52;;;12.35;;
24903;SDS011;12960;50.322;11.124;2022-07-30T00:30:36;14.38;;;11.38;;
24903;SDS011;12960;50.322;11.124;2022-07-30T00:31:38;17.13;;;12.30;;
24903;SDS011;12960;50.322;11.124;2022-07-30T00:32:39;29.27;;;21.17;;
24903;SDS011;12960;50.322;11.124;2022-07-30T00:33:40;21.08;;;16.77;;
24903;SDS011;12960;50.322;11.124;2022-07-30T00:34:41;14.70;;;12.63;;
24903;SDS011;12960;50.322;11.124;2022-07-30T00:35:42;18.08;;;12.50;;
24903;SDS011;12960;50.322;11.124;2022-07-30T00:36:45;16.65;;;13.00;;
24903;SDS011;12960;50.322;11.124;2022-07-30T00:37:46;20.10;;;12.50;;
24903;SDS011;12960;50.322;11.124;2022-07-30T00:38:47;16.30;;;12.38;;
24903;SDS011;12960;50.322;11.124;2022-07-30T00:39:48;14.10;;;11.68;;
24903;SDS011;12960;50.322;11.124;2022-07-30T00:40:49;19.60;;;12.45;;
24903;SDS011;12960;50.322;11.124;2022-07-30T00:42:00;15.80;;;12.55;;
24903;SDS011;12960;50.322;11.124;2022-07-30T00:43:03;20.02;;;12.30;;
24903;SDS011;12960;50.322;11.124;2022-07-30T00:44:04;17.05;;;12.30;;
24903;SDS011;12960;50.322;11.124;2022-07-30T00:45:06;15.25;;;11.73;;
24903;SDS011;12960;50.322;11.124;2022-07-30T00:46:07;14.70;;;12.27;;
24903;SDS011;12960;50.322;11.124;2022-07-30T00:47:09;14.10;;;11.23;;
24903;SDS011;12960;50.322;11.124;2022-07-30T00:48:10;17.65;;;12.32;;
24903;SDS011;12960;50.322;11.124;2022-07-30T00:49:11;16.85;;;12.50;;
24903;SDS011;12960;50.322;11.124;2022-07-30T00:50:13;15.50;;;11.77;;
24903;SDS011;12960;50.322;11.124;2022-07-30T00:51:14;14.85;;;11.88;;
24903;SDS011;12960;50.322;11.124;2022-07-30T00:52:15;14.52;;;12.00;;
24903;SDS011;12960;50.322;11.124;2022-07-30T00:53:16;15.50;;;12.48;;
24903;SDS011;12960;50.322;11.124;2022-07-30T00:54:17;14.60;;;12.35;;
24903;SDS011;12960;50.322;11.124;2022-07-30T00:55:18;14.60;;;13.02;;
24903;SDS011;12960;50.322;11.124;2022-07-30T00:56:19;15.10;;;12.52;;
24903;SDS011;12960;50.322;11.124;2022-07-30T00:57:20;14.75;;;11.27;;
24903;SDS011;12960;50.322;11.124;2022-07-30T00:58:22;14.52;;;12.48;;
24903;SDS011;12960;50.322;11.124;2022-07-30T00:59:23;18.73;;;12.07;;
24903;SDS011;12960;50.322;11.124;2022-07-30T01:00:24;17.30;;;12.65;;
24903;SDS011;12960;50.322;11.124;2022-07-30T01:01:25;18.48;;;13.52;;
24903;SDS011;12960;50.322;11.124;2022-07-30T01:02:26;16.25;;;13.13;;
24903;SDS011;12960;50.322;11.124;2022-07-30T01:03:27;15.15;;;13.00;;
24903;SDS011;12960;50.322;11.124;2022-07-30T01:04:28;17.70;;;14.05;;
24903;SDS011;12960;50.322;11.124;2022-07-30T01:05:30;15.60;;;13.07;;
24903;SDS011;12960;50.322;11.124;2022-07-30T01:06:31;23.00;;;15.95;;
24903;SDS011;12960;50.322;11.124;2022-07-30T01:07:32;17.10;;;12.90;;
24903;SDS011;12960;50.322;11.124;2022-07-30T01:08:33;15.23;;;12.48;;
24903;SDS011;12960;50.322;11.124;2022-07-30T01:09:34;15.10;;;12.15;;
24903;SDS011;12960;50.322;11.124;2022-07-30T01:10:35;18.35;;;13.38;;
24903;SDS011;12960;50.322;11.124;2022-07-30T01:11:37;16.45;;;12.52;;
24903;SDS011;12960;50.322;11.124;2022-07-30T01:12:41;14.07;;;12.20;;
24903;SDS011;12960;50.322;11.124;2022-07-30T01:13:43;16.80;;;12.35;;
24903;SDS011;12960;50.322;11.124;2022-07-30T01:14:44;13.00;;;11.45;;
24903;SDS011;12960;50.322;11.124;2022-07-30T01:15:45;18.00;;;13.63;;
24903;SDS011;12960;50.322;11.124;2022-07-30T01:16:47;16.27;;;13.63;;
24903;SDS011;12960;50.322;11.124;2022-07-30T01:17:48;16.65;;;12.90;;
24903;SDS011;12960;50.322;11.124;2022-07-30T01:18:52;14.73;;;11.30;;
24903;SDS011;12960;50.322;11.124;2022-07-30T01:20:15;19.33;;;13.68;;
24903;SDS011;12960;50.322;11.124;2022-07-30T01:21:23;16.52;;;13.23;;
24903;SDS011;12960;50.322;11.124;2022-07-30T01:23:49;18.00;;;13.40;;
24903;SDS011;12960;50.322;11.124;2022-07-30T01:26:07;15.25;;;12.60;;
24903;SDS011;12960;50.322;11.124;2022-07-30T01:27:11;18.80;;;14.18;;
24903;SDS011;12960;50.322;11.124;2022-07-30T01:28:15;18.38;;;15.20;;
24903;SDS011;12960;50.322;11.124;2022-07-30T01:29:20;18.83;;;13.75;;
24903;SDS011;12960;50.322;11.124;2022-07-30T01:30:24;16.13;;;14.13;;
24903;SDS011;12960;50.322;11.124;2022-07-30T01:31:28;17.75;;;13.00;;
24903;SDS011;12960;50.322;11.124;2022-07-30T01:32:30;18.67;;;13.65;;
24903;SDS011;12960;50.322;11.124;2022-07-30T01:33:34;16.15;;;13.68;;
24903;SDS011;12960;50.322;11.124;2022-07-30T01:34:38;20.27;;;15.48;;
24903;SDS011;12960;50.322;11.124;2022-07-30T01:35:42;21.20;;;16.33;;
24903;SDS011;12960;50.322;11.124;2022-07-30T01:36:45;21.88;;;16.83;;
24903;SDS011;12960;50.322;11.124;2022-07-30T01:37:46;20.70;;;15.00;;
24903;SDS011;12960;50.322;11.124;2022-07-30T01:38:50;19.13;;;14.68;;
24903;SDS011;12960;50.322;11.124;2022-07-30T01:39:52;19.40;;;15.63;;
24903;SDS011;12960;50.322;11.124;2022-07-30T01:40:54;21.73;;;16.08;;
24903;SDS011;12960;50.322;11.124;2022-07-30T01:41:56;22.80;;;17.85;;
24903;SDS011;12960;50.322;11.124;2022-07-30T01:42:59;20.15;;;16.90;;
24903;SDS011;12960;50.322;11.124;2022-07-30T01:44:02;21.35;;;16.10;;
24903;SDS011;12960;50.322;11.124;2022-07-30T01:45:05;20.38;;;16.20;;
24903;SDS011;12960;50.322;11.124;2022-07-30T01:46:08;20.67;;;17.38;;
24903;SDS011;12960;50.322;11.124;2022-07-30T01:47:10;25.67;;;16.58;;
24903;SDS011;12960;50.322;11.124;2022-07-30T01:48:12;20.00;;;15.65;;
24903;SDS011;12960;50.322;11.124;2022-07-30T01:49:17;19.42;;;15.43;;
24903;SDS011;12960;50.322;11.124;2022-07-30T01:50:19;22.00;;;17.00;;
24903;SDS011;12960;50.322;11.124;2022-07-30T01:51:21;22.23;;;18.05;;
24903;SDS011;12960;50.322;11.124;2022-07-30T01:52:23;22.20;;;17.33;;
24903;SDS011;12960;50.322;11.124;2022-07-30T01:53:30;25.33;;;18.60;;
24903;SDS011;12960;50.322;11.124;2022-07-30T01:54:36;24.10;;;18.95;;
24903;SDS011;12960;50.322;11.124;2022-07-30T01:55:38;29.23;;;20.55;;
24903;SDS011;12960;50.322;11.124;2022-07-30T01:56:41;25.83;;;18.65;;
24903;SDS011;12960;50.322;11.124;2022-07-30T01:57:44;24.02;;;18.35;;
24903;SDS011;12960;50.322;11.124;2022-07-30T01:58:47;25.15;;;19.30;;
24903;SDS011;12960;50.322;11.124;2022-07-30T01:59:50;27.08;;;18.20;;
24903;SDS011;12960;50.322;11.124;2022-07-30T02:00:54;25.63;;;18.40;;
24903;SDS011;12960;50.322;11.124;2022-07-30T02:01:58;24.90;;;18.45;;
24903;SDS011;12960;50.322;11.124;2022-07-30T02:02:59;27.77;;;19.30;;
24903;SDS011;12960;50.322;11.124;2022-07-30T02:04:01;22.92;;;17.63;;
24903;SDS011;12960;50.322;11.124;2022-07-30T02:05:03;24.95;;;17.90;;
24903;SDS011;12960;50.322;11.124;2022-07-30T02:06:08;25.63;;;18.95;;
24903;SDS011;12960;50.322;11.124;2022-07-30T02:07:38;23.67;;;17.83;;
24903;SDS011;12960;50.322;11.124;2022-07-30T02:08:57;27.02;;;19.95;;
24903;SDS011;12960;50.322;11.124;2022-07-30T02:10:03;28.30;;;19.80;;
24903;SDS011;12960;50.322;11.124;2022-07-30T02:11:07;22.90;;;19.15;;
24903;SDS011;12960;50.322;11.124;2022-07-30T02:12:10;24.55;;;18.00;;
24903;SDS011;12960;50.322;11.124;2022-07-30T02:13:29;22.30;;;17.35;;
24903;SDS011;12960;50.322;11.124;2022-07-30T02:14:40;22.17;;;17.25;;
24903;SDS011;12960;50.322;11.124;2022-07-30T02:15:51;24.70;;;17.15;;
24903;SDS011;12960;50.322;11.124;2022-07-30T02:16:54;20.48;;;16.30;;
24903;SDS011;12960;50.322;11.124;2022-07-30T02:18:02;22.60;;;16.83;;
24903;SDS011;12960;50.322;11.124;2022-07-30T02:19:10;21.50;;;15.98;;
24903;SDS011;12960;50.322;11.124;2022-07-30T02:20:15;21.63;;;16.42;;
24903;SDS011;12960;50.322;11.124;2022-07-30T02:21:17;20.65;;;16.05;;
24903;SDS011;12960;50.322;11.124;2022-07-30T02:22:21;23.25;;;16.58;;
24903;SDS011;12960;50.322;11.124;2022-07-30T02:23:25;18.30;;;14.55;;
24903;SDS011;12960;50.322;11.124;2022-07-30T02:24:28;20.35;;;16.15;;
24903;SDS011;12960;50.322;11.124;2022-07-30T02:25:32;22.60;;;14.95;;
24903;SDS011;12960;50.322;11.124;2022-07-30T02:26:35;19.23;;;14.75;;
24903;SDS011;12960;50.322;11.124;2022-07-30T02:27:38;18.05;;;15.13;;
24903;SDS011;12960;50.322;11.124;2022-07-30T02:28:43;20.20;;;14.27;;
24903;SDS011;12960;50.322;11.124;2022-07-30T02:29:47;18.52;;;14.27;;
24903;SDS011;12960;50.322;11.124;2022-07-30T02:30:50;18.75;;;15.32;;
24903;SDS011;12960;50.322;11.124;2022-07-30T02:31:53;22.25;;;15.90;;
24903;SDS011;12960;50.322;11.124;2022-07-30T02:32:58;21.13;;;15.23;;
24903;SDS011;12960;50.322;11.124;2022-07-30T02:34:07;21.98;;;17.35;;
24903;SDS011;12960;50.322;11.124;2022-07-30T02:35:19;23.10;;;18.02;;
24903;SDS011;12960;50.322;11.124;2022-07-30T02:36:22;20.15;;;16.67;;
24903;SDS011;12960;50.322;11.124;2022-07-30T02:37:24;22.40;;;16.83;;
24903;SDS011;12960;50.322;11.124;2022-07-30T02:38:27;24.02;;;18.08;;
24903;SDS011;12960;50.322;11.124;2022-07-30T02:39:30;22.08;;;17.15;;
24903;SDS011;12960;50.322;11.124;2022-07-30T02:40:33;20.65;;;16.85;;
24903;SDS011;12960;50.322;11.124;2022-07-30T02:41:35;22.45;;;17.13;;
24903;SDS011;12960;50.322;11.124;2022-07-30T02:42:39;22.42;;;16.58;;
24903;SDS011;12960;50.322;11.124;2022-07-30T02:43:41;23.60;;;17.13;;
24903;SDS011;12960;50.322;11.124;2022-07-30T02:44:43;29.10;;;18.50;;
24903;SDS011;12960;50.322;11.124;2022-07-30T02:45:45;27.90;;;17.48;;
24903;SDS011;12960;50.322;11.124;2022-07-30T02:46:48;22.75;;;16.40;;
24903;SDS011;12960;50.322;11.124;2022-07-30T02:47:52;24.40;;;17.55;;
24903;SDS011;12960;50.322;11.124;2022-07-30T02:48:56;23.52;;;16.38;;
24903;SDS011;12960;50.322;11.124;2022-07-30T02:49:58;23.85;;;18.20;;
24903;SDS011;12960;50.322;11.124;2022-07-30T02:51:01;25.52;;;16.52;;
24903;SDS011;12960;50.322;11.124;2022-07-30T02:52:03;20.42;;;16.10;;
24903;SDS011;12960;50.322;11.124;2022-07-30T02:53:09;21.27;;;16.25;;
24903;SDS011;12960;50.322;11.124;2022-07-30T02:54:11;24.77;;;17.35;;
24903;SDS011;12960;50.322;11.124;2022-07-30T02:55:15;24.73;;;17.42;;
24903;SDS011;12960;50.322;11.124;2022-07-30T02:56:17;22.48;;;16.70;;
24903;SDS011;12960;50.322;11.124;2022-07-30T02:57:20;23.63;;;15.95;;
24903;SDS011;12960;50.322;11.124;2022-07-30T02:58:22;22.63;;;16.42;;
24903;SDS011;12960;50.322;11.124;2022-07-30T02:59:24;25.52;;;16.85;;
24903;SDS011;12960;50.322;11.124;2022-07-30T03:00:28;24.35;;;17.67;;
24903;SDS011;12960;50.322;11.124;2022-07-30T03:01:30;25.20;;;17.05;;
24903;SDS011;12960;50.322;11.124;2022-07-30T03:02:33;22.92;;;18.00;;
24903;SDS011;12960;50.322;11.124;2022-07-30T03:03:36;26.00;;;16.88;;
24903;SDS011;12960;50.322;11.124;2022-07-30T03:04:37;22.60;;;16.00;;
24903;SDS011;12960;50.322;11.124;2022-07-30T03:05:40;23.85;;;16.73;;
24903;SDS011;12960;50.322;11.124;2022-07-30T03:06:42;20.20;;;16.73;;
24903;SDS011;12960;50.322;11.124;2022-07-30T03:07:44;20.77;;;14.85;;
24903;SDS011;12960;50.322;11.124;2022-07-30T03:08:46;23.45;;;16.70;;
24903;SDS011;12960;50.322;11.124;2022-07-30T03:09:47;23.65;;;15.90;;
24903;SDS011;12960;50.322;11.124;2022-07-30T03:10:50;21.23;;;15.48;;
24903;SDS011;12960;50.322;11.124;2022-07-30T03:11:54;20.85;;;15.70;;
24903;SDS011;12960;50.322;11.124;2022-07-30T03:12:56;24.60;;;16.92;;
24903;SDS011;12960;50.322;11.124;2022-07-30T03:13:59;22.50;;;16.85;;
24903;SDS011;12960;50.322;11.124;2022-07-30T03:15:00;23.17;;;17.00;;
24903;SDS011;12960;50.322;11.124;2022-07-30T03:16:02;24.38;;;16.98;;
24903;SDS011;12960;50.322;11.124;2022-07-30T03:17:06;21.38;;;16.33;;
24903;SDS011;12960;50.322;11.124;2022-07-30T03:18:10;28.17;;;16.73;;
24903;SDS011;12960;50.322;11.124;2022-07-30T03:19:13;28.33;;;18.95;;
24903;SDS011;12960;50.322;11.124;2022-07-30T03:20:17;22.88;;;16.98;;
24903;SDS011;12960;50.322;11.124;2022-07-30T03:21:21;26.48;;;18.25;;
24903;SDS011;12960;50.322;11.124;2022-07-30T03:22:26;27.10;;;17.85;;
24903;SDS011;12960;50.322;11.124;2022-07-30T03:23:29;24.45;;;17.83;;
24903;SDS011;12960;50.322;11.124;2022-07-30T03:24:33;23.85;;;16.80;;
24903;SDS011;12960;50.322;11.124;2022-07-30T03:25:37;24.40;;;17.70;;
24903;SDS011;12960;50.322;11.124;2022-07-30T03:26:40;25.27;;;17.60;;
24903;SDS011;12960;50.322;11.124;2022-07-30T03:27:43;25.88;;;17.00;;
24903;SDS011;12960;50.322;11.124;2022-07-30T03:28:46;25.80;;;17.63;;
24903;SDS011;12960;50.322;11.124;2022-07-30T03:29:48;23.90;;;16.70;;
24903;SDS011;12960;50.322;11.124;2022-07-30T03:30:53;24.25;;;17.05;;
24903;SDS011;12960;50.322;11.124;2022-07-30T03:31:54;31.13;;;16.40;;
24903;SDS011;12960;50.322;11.124;2022-07-30T03:32:56;20.55;;;15.32;;
24903;SDS011;12960;50.322;11.124;2022-07-30T03:33:58;25.33;;;16.60;;
24903;SDS011;12960;50.322;11.124;2022-07-30T03:34:59;24.05;;;16.48;;
24903;SDS011;12960;50.322;11.124;2022-07-30T03:36:01;23.95;;;16.00;;
24903;SDS011;12960;50.322;11.124;2022-07-30T03:37:03;18.33;;;14.13;;
24903;SDS011;12960;50.322;11.124;2022-07-30T03:38:05;19.73;;;14.65;;
24903;SDS011;12960;50.322;11.124;2022-07-30T03:39:07;21.33;;;16.00;;
24903;SDS011;12960;50.322;11.124;2022-07-30T03:40:09;21.67;;;15.50;;
24903;SDS011;12960;50.322;11.124;2022-07-30T03:41:11;21.95;;;15.25;;
24903;SDS011;12960;50.322;11.124;2022-07-30T03:42:13;19.13;;;15.15;;
24903;SDS011;12960;50.322;11.124;2022-07-30T03:43:15;24.17;;;15.43;;
24903;SDS011;12960;50.322;11.124;2022-07-30T03:44:17;19.85;;;14.35;;
24903;SDS011;12960;50.322;11.124;2022-07-30T03:45:18;20.88;;;14.60;;
24903;SDS011;12960;50.322;11.124;2022-07-30T03:46:20;19.25;;;13.73;;
24903;SDS011;12960;50.322;11.124;2022-07-30T03:47:22;17.60;;;14.13;;
24903;SDS011;12960;50.322;11.124;2022-07-30T03:48:25;19.15;;;14.32;;
24903;SDS011;12960;50.322;11.124;2022-07-30T03:49:26;16.60;;;13.85;;
24903;SDS011;12960;50.322;11.124;2022-07-30T03:50:28;15.75;;;13.05;;
24903;SDS011;12960;50.322;11.124;2022-07-30T03:51:31;16.88;;;13.38;;
24903;SDS011;12960;50.322;11.124;2022-07-30T03:52:34;17.92;;;13.73;;
24903;SDS011;12960;50.322;11.124;2022-07-30T03:53:39;21.10;;;13.88;;
24903;SDS011;12960;50.322;11.124;2022-07-30T03:54:41;17.35;;;13.55;;
24903;SDS011;12960;50.322;11.124;2022-07-30T03:55:42;17.92;;;13.13;;
24903;SDS011;12960;50.322;11.124;2022-07-30T03:56:43;17.08;;;13.90;;
24903;SDS011;12960;50.322;11.124;2022-07-30T03:57:44;18.30;;;12.73;;
24903;SDS011;12960;50.322;11.124;2022-07-30T03:58:45;17.92;;;12.63;;
24903;SDS011;12960;50.322;11.124;2022-07-30T03:59:47;18.50;;;13.20;;
24903;SDS011;12960;50.322;11.124;2022-07-30T04:00:49;18.45;;;12.73;;
24903;SDS011;12960;50.322;11.124;2022-07-30T04:01:50;16.35;;;11.40;;
24903;SDS011;12960;50.322;11.124;2022-07-30T04:02:52;18.58;;;12.38;;
24903;SDS011;12960;50.322;11.124;2022-07-30T04:03:53;16.45;;;12.38;;
24903;SDS011;12960;50.322;11.124;2022-07-30T04:04:54;16.45;;;12.32;;
24903;SDS011;12960;50.322;11.124;2022-07-30T04:05:55;12.82;;;10.60;;
24903;SDS011;12960;50.322;11.124;2022-07-30T04:06:57;14.00;;;11.27;;
24903;SDS011;12960;50.322;11.124;2022-07-30T04:07:58;13.25;;;10.70;;
24903;SDS011;12960;50.322;11.124;2022-07-30T04:08:59;13.23;;;10.32;;
24903;SDS011;12960;50.322;11.124;2022-07-30T04:10:00;13.50;;;10.13;;
24903;SDS011;12960;50.322;11.124;2022-07-30T04:11:02;11.60;;;10.02;;
24903;SDS011;12960;50.322;11.124;2022-07-30T04:12:04;13.38;;;10.15;;
24903;SDS011;12960;50.322;11.124;2022-07-30T04:13:05;15.25;;;10.00;;
24903;SDS011;12960;50.322;11.124;2022-07-30T04:14:06;10.85;;;9.70;;
24903;SDS011;12960;50.322;11.124;2022-07-30T04:15:07;10.45;;;9.35;;
24903;SDS011;12960;50.322;11.124;2022-07-30T04:16:15;12.98;;;9.43;;
24903;SDS011;12960;50.322;11.124;2022-07-30T04:18:35;12.15;;;9.80;;
24903;SDS011;12960;50.322;11.124;2022-07-30T04:19:45;12.30;;;9.93;;
24903;SDS011;12960;50.322;11.124;2022-07-30T04:20:48;12.20;;;9.48;;
24903;SDS011;12960;50.322;11.124;2022-07-30T04:21:53;11.30;;;9.55;;
24903;SDS011;12960;50.322;11.124;2022-07-30T04:22:56;11.85;;;9.45;;
24903;SDS011;12960;50.322;11.124;2022-07-30T04:23:58;11.63;;;10.20;;
24903;SDS011;12960;50.322;11.124;2022-07-30T04:25:01;12.18;;;9.30;;
24903;SDS011;12960;50.322;11.124;2022-07-30T04:26:05;11.93;;;9.63;;
24903;SDS011;12960;50.322;11.124;2022-07-30T04:27:07;10.88;;;9.10;;
24903;SDS011;12960;50.322;11.124;2022-07-30T04:28:09;13.13;;;10.05;;
24903;SDS011;12960;50.322;11.124;2022-07-30T04:29:11;13.88;;;8.80;;
24903;SDS011;12960;50.322;11.124;2022-07-30T04:30:12;11.63;;;8.52;;
24903;SDS011;12960;50.322;11.124;2022-07-30T04:31:13;10.25;;;8.93;;
24903;SDS011;12960;50.322;11.124;2022-07-30T04:32:15;9.88;;;8.73;;
24903;SDS011;12960;50.322;11.124;2022-07-30T04:33:16;9.70;;;8.60;;
24903;SDS011;12960;50.322;11.124;2022-07-30T04:34:17;11.85;;;9.10;;
24903;SDS011;12960;50.322;11.124;2022-07-30T04:35:25;13.82;;;9.25;;
24903;SDS011;12960;50.322;11.124;2022-07-30T04:36:28;11.18;;;8.88;;
24903;SDS011;12960;50.322;11.124;2022-07-30T04:37:30;11.80;;;9.40;;
24903;SDS011;12960;50.322;11.124;2022-07-30T04:38:31;13.45;;;11.00;;
24903;SDS011;12960;50.322;11.124;2022-07-30T04:39:32;11.23;;;9.85;;
24903;SDS011;12960;50.322;11.124;2022-07-30T04:40:33;13.90;;;10.45;;
24903;SDS011;12960;50.322;11.124;2022-07-30T04:41:34;10.20;;;9.20;;
24903;SDS011;12960;50.322;11.124;2022-07-30T04:42:36;11.52;;;9.43;;
24903;SDS011;12960;50.322;11.124;2022-07-30T04:43:37;13.75;;;10.15;;
24903;SDS011;12960;50.322;11.124;2022-07-30T04:44:38;11.38;;;9.90;;
24903;SDS011;12960;50.322;11.124;2022-07-30T04:45:39;12.27;;;10.60;;
24903;SDS011;12960;50.322;11.124;2022-07-30T04:46:41;13.43;;;10.60;;
24903;SDS011;12960;50.322;11.124;2022-07-30T04:47:42;14.50;;;11.32;;
24903;SDS011;12960;50.322;11.124;2022-07-30T04:48:43;11.88;;;10.32;;
24903;SDS011;12960;50.322;11.124;2022-07-30T04:49:44;12.00;;;10.30;;
24903;SDS011;12960;50.322;11.124;2022-07-30T04:50:48;11.38;;;10.18;;
24903;SDS011;12960;50.322;11.124;2022-07-30T04:51:53;13.05;;;10.00;;
24903;SDS011;12960;50.322;11.124;2022-07-30T04:52:55;11.95;;;10.32;;
24903;SDS011;12960;50.322;11.124;2022-07-30T04:53:56;12.13;;;10.57;;
24903;SDS011;12960;50.322;11.124;2022-07-30T04:55:01;15.98;;;12.02;;
24903;SDS011;12960;50.322;11.124;2022-07-30T04:56:04;16.80;;;12.95;;
24903;SDS011;12960;50.322;11.124;2022-07-30T04:57:06;50.13;;;34.30;;
24903;SDS011;12960;50.322;11.124;2022-07-30T04:58:10;17.08;;;13.18;;
24903;SDS011;12960;50.322;11.124;2022-07-30T04:59:13;99.25;;;59.05;;
24903;SDS011;12960;50.322;11.124;2022-07-30T05:00:16;45.83;;;28.90;;
24903;SDS011;12960;50.322;11.124;2022-07-30T05:01:21;59.78;;;37.40;;
24903;SDS011;12960;50.322;11.124;2022-07-30T05:02:28;52.75;;;33.28;;
24903;SDS011;12960;50.322;11.124;2022-07-30T05:03:30;22.00;;;16.33;;
24903;SDS011;12960;50.322;11.124;2022-07-30T05:04:33;18.67;;;15.07;;
24903;SDS011;12960;50.322;11.124;2022-07-30T05:05:34;16.08;;;12.75;;
24903;SDS011;12960;50.322;11.124;2022-07-30T05:06:36;19.08;;;14.10;;
24903;SDS011;12960;50.322;11.124;2022-07-30T05:07:39;18.85;;;15.80;;
24903;SDS011;12960;50.322;11.124;2022-07-30T05:08:41;17.10;;;13.50;;
24903;SDS011;12960;50.322;11.124;2022-07-30T05:09:42;22.10;;;16.20;;
24903;SDS011;12960;50.322;11.124;2022-07-30T05:10:43;15.23;;;12.43;;
24903;SDS011;12960;50.322;11.124;2022-07-30T05:11:51;14.60;;;11.95;;
24903;SDS011;12960;50.322;11.124;2022-07-30T05:12:53;17.02;;;12.40;;
24903;SDS011;12960;50.322;11.124;2022-07-30T05:13:54;15.35;;;12.90;;
24903;SDS011;12960;50.322;11.124;2022-07-30T05:14:55;13.85;;;11.68;;
24903;SDS011;12960;50.322;11.124;2022-07-30T05:15:56;13.65;;;11.75;;
24903;SDS011;12960;50.322;11.124;2022-07-30T05:16:57;13.38;;;10.88;;
24903;SDS011;12960;50.322;11.124;2022-07-30T05:17:58;14.57;;;12.35;;
24903;SDS011;12960;50.322;11.124;2022-07-30T05:18:59;13.73;;;10.95;;
24903;SDS011;12960;50.322;11.124;2022-07-30T05:20:00;16.10;;;11.70;;
24903;SDS011;12960;50.322;11.124;2022-07-30T05:21:01;13.43;;;11.55;;
24903;SDS011;12960;50.322;11.124;2022-07-30T05:22:02;13.70;;;12.10;;
24903;SDS011;12960;50.322;11.124;2022-07-30T05:23:03;15.07;;;11.77;;
24903;SDS011;12960;50.322;11.124;2022-07-30T05:24:05;18.98;;;12.35;;
24903;SDS011;12960;50.322;11.124;2022-07-30T05:25:06;13.65;;;11.48;;
24903;SDS011;12960;50.322;11.124;2022-07-30T05:26:07;16.02;;;11.32;;
24903;SDS011;12960;50.322;11.124;2022-07-30T05:27:08;15.43;;;10.50;;
24903;SDS011;12960;50.322;11.124;2022-07-30T05:28:09;13.00;;;11.35;;
24903;SDS011;12960;50.322;11.124;2022-07-30T05:29:11;13.98;;;11.02;;
24903;SDS011;12960;50.322;11.124;2022-07-30T05:30:12;13.43;;;11.10;;
24903;SDS011;12960;50.322;11.124;2022-07-30T05:31:13;12.93;;;10.73;;
24903;SDS011;12960;50.322;11.124;2022-07-30T05:32:14;13.52;;;9.82;;
24903;SDS011;12960;50.322;11.124;2022-07-30T05:33:15;10.30;;;9.10;;
24903;SDS011;12960;50.322;11.124;2022-07-30T05:34:16;13.10;;;9.70;;
24903;SDS011;12960;50.322;11.124;2022-07-30T05:35:17;12.38;;;10.45;;
24903;SDS011;12960;50.322;11.124;2022-07-30T05:36:19;13.90;;;10.23;;
24903;SDS011;12960;50.322;11.124;2022-07-30T05:37:20;10.63;;;9.43;;
24903;SDS011;12960;50.322;11.124;2022-07-30T05:38:21;11.00;;;9.77;;
24903;SDS011;12960;50.322;11.124;2022-07-30T05:39:22;11.85;;;10.05;;
24903;SDS011;12960;50.322;11.124;2022-07-30T05:40:24;13.32;;;9.80;;
24903;SDS011;12960;50.322;11.124;2022-07-30T05:41:25;12.80;;;9.82;;
24903;SDS011;12960;50.322;11.124;2022-07-30T05:42:27;13.38;;;10.80;;
24903;SDS011;12960;50.322;11.124;2022-07-30T05:43:28;12.60;;;9.73;;
24903;SDS011;12960;50.322;11.124;2022-07-30T05:44:29;13.32;;;11.30;;
24903;SDS011;12960;50.322;11.124;2022-07-30T05:45:30;11.88;;;10.23;;
24903;SDS011;12960;50.322;11.124;2022-07-30T05:46:31;13.48;;;11.45;;
24903;SDS011;12960;50.322;11.124;2022-07-30T05:47:33;14.25;;;10.68;;
24903;SDS011;12960;50.322;11.124;2022-07-30T05:48:34;12.07;;;10.77;;
24903;SDS011;12960;50.322;11.124;2022-07-30T05:49:36;12.35;;;10.25;;
24903;SDS011;12960;50.322;11.124;2022-07-30T05:50:37;13.50;;;11.40;;
24903;SDS011;12960;50.322;11.124;2022-07-30T05:51:38;12.43;;;10.70;;
24903;SDS011;12960;50.322;11.124;2022-07-30T05:52:39;51.55;;;35.17;;
24903;SDS011;12960;50.322;11.124;2022-07-30T05:53:40;104.20;;;67.40;;
24903;SDS011;12960;50.322;11.124;2022-07-30T05:54:41;40.22;;;26.92;;
24903;SDS011;12960;50.322;11.124;2022-07-30T05:55:42;23.88;;;18.63;;
24903;SDS011;12960;50.322;11.124;2022-07-30T05:56:43;37.60;;;25.35;;
24903;SDS011;12960;50.322;11.124;2022-07-30T05:57:44;13.20;;;10.10;;
24903;SDS011;12960;50.322;11.124;2022-07-30T05:58:45;11.55;;;9.63;;
24903;SDS011;12960;50.322;11.124;2022-07-30T05:59:46;11.20;;;10.00;;
24903;SDS011;12960;50.322;11.124;2022-07-30T06:00:47;12.77;;;9.27;;
24903;SDS011;12960;50.322;11.124;2022-07-30T06:01:48;12.43;;;10.00;;
24903;SDS011;12960;50.322;11.124;2022-07-30T06:02:49;12.23;;;10.52;;
24903;SDS011;12960;50.322;11.124;2022-07-30T06:03:50;10.85;;;9.70;;
24903;SDS011;12960;50.322;11.124;2022-07-30T06:04:51;14.50;;;10.30;;
24903;SDS011;12960;50.322;11.124;2022-07-30T06:05:52;11.80;;;10.40;;